Time;durP1;ratioP1;P1;durP2;ratioP2;P2;SDS_P1;SDS_P2;PMS_P1;PMS_P2;Temp;Humidity;BMP_temperature;BMP_pressure;BME280_temperature;BME280_humidity;BME280_pressure;Samples;Min_cycle;Max_cycle;Signal;HPM_P1;HPM_P2
2022/10/13 00:00:38;;;;;;;27.27;9.63;;;;;;;8.10;100.00;101758.16;5062496;28;20040;-75
2022/10/13 00:03:04;;;;;;;24.05;10.93;;;;;;;8.16;100.00;101753.34;5067301;28;20028;-75
2022/10/13 00:05:29;;;;;;;23.23;9.52;;;;;;;8.13;100.00;101753.56;5064217;28;20033;-75
2022/10/13 00:07:56;;;;;;;29.55;9.13;;;;;;;8.11;100.00;101749.47;5064414;28;20024;-75
2022/10/13 00:10:22;;;;;;;27.33;10.18;;;;;;;8.14;100.00;101746.69;5060866;28;20036;-75
2022/10/13 00:12:47;;;;;;;29.45;11.00;;;;;;;8.12;100.00;101748.56;5060646;28;20063;-74
2022/10/13 00:15:13;;;;;;;23.13;9.57;;;;;;;8.09;100.00;101739.25;5057750;28;20104;-74
2022/10/13 00:17:40;;;;;;;21.40;9.48;;;;;;;8.10;100.00;101740.06;5055920;28;20071;-76
2022/10/13 00:20:07;;;;;;;21.30;8.75;;;;;;;8.10;100.00;101742.66;5059554;28;20121;-75
2022/10/13 00:22:33;;;;;;;25.15;9.35;;;;;;;8.10;100.00;101747.81;5056799;28;20032;-74
2022/10/13 00:24:59;;;;;;;25.40;9.48;;;;;;;8.10;100.00;101742.66;5057136;28;20033;-75
2022/10/13 00:27:24;;;;;;;24.30;9.73;;;;;;;8.14;100.00;101744.09;5058012;28;20035;-75
2022/10/13 00:29:50;;;;;;;30.00;9.90;;;;;;;8.11;100.00;101744.31;5057054;28;20485;-75
2022/10/13 00:32:15;;;;;;;27.15;9.48;;;;;;;8.10;100.00;101742.66;5062133;28;20494;-76
2022/10/13 00:34:41;;;;;;;25.70;9.70;;;;;;;8.13;100.00;101742.44;5061275;28;20020;-74
2022/10/13 00:37:07;;;;;;;26.42;8.98;;;;;;;8.11;100.00;101742.53;5055547;28;20090;-74
2022/10/13 00:39:33;;;;;;;32.67;11.88;;;;;;;8.17;100.00;101736.09;5058250;28;20068;-75
2022/10/13 00:41:59;;;;;;;31.33;9.88;;;;;;;8.15;100.00;101730.22;5047557;28;20032;-75
2022/10/13 00:45:03;;;;;;;21.10;10.18;;;;;;;8.15;100.00;101735.38;5055294;28;20441;-75
2022/10/13 00:47:41;;;;;;;28.02;10.82;;;;;;;8.24;100.00;101734.69;5058735;28;20040;-75
2022/10/13 00:50:13;;;;;;;19.85;10.32;;;;;;;8.21;100.00;101728.91;5062676;28;20039;-75
2022/10/13 00:52:40;;;;;;;25.77;10.07;;;;;;;8.21;100.00;101729.75;5070106;28;20444;-75
2022/10/13 00:55:09;;;;;;;22.33;9.57;;;;;;;8.21;100.00;101721.16;5070550;28;20028;-75
2022/10/13 00:57:38;;;;;;;25.20;9.85;;;;;;;8.23;100.00;101727.03;5064207;28;20113;-75
2022/10/13 01:00:05;;;;;;;27.75;12.25;;;;;;;8.27;100.00;101718.09;5060416;28;20029;-75
2022/10/13 01:02:35;;;;;;;27.25;10.98;;;;;;;8.38;100.00;101718.94;5061212;28;20119;-75
2022/10/13 01:05:02;;;;;;;25.10;11.25;;;;;;;8.41;100.00;101719.66;5055727;28;20036;-75
2022/10/13 01:07:28;;;;;;;23.15;10.38;;;;;;;8.38;100.00;101713.78;5089343;28;20044;-75
2022/10/13 01:09:54;;;;;;;17.02;10.13;;;;;;;8.37;100.00;101717.28;5059177;28;20035;-75
2022/10/13 01:12:51;;;;;;;24.92;10.77;;;;;;;8.43;100.00;101707.44;5063977;28;20115;-76
2022/10/13 01:15:39;;;;;;;19.77;9.63;;;;;;;8.41;100.00;101697.19;5058754;28;20031;-75
2022/10/13 01:18:23;;;;;;;19.73;9.60;;;;;;;8.40;100.00;101705.91;5060881;28;20082;-75
2022/10/13 01:21:30;;;;;;;26.13;10.07;;;;;;;8.39;100.00;101710.22;5060311;28;20029;-75
2022/10/13 01:24:14;;;;;;;22.70;10.13;;;;;;;8.43;100.00;101705.69;5053478;28;20490;-75
2022/10/13 01:27:00;;;;;;;24.45;11.30;;;;;;;8.45;100.00;101701.22;5056877;28;20047;-75
2022/10/13 01:29:40;;;;;;;21.95;10.35;;;;;;;8.47;100.00;101704.50;5060831;28;20036;-75
2022/10/13 01:32:21;;;;;;;24.88;9.95;;;;;;;8.47;100.00;101694.16;5066016;28;20047;-76
2022/10/13 01:35:05;;;;;;;23.70;9.82;;;;;;;8.48;100.00;101697.59;5063549;28;20441;-75
2022/10/13 01:38:01;;;;;;;26.27;10.50;;;;;;;8.50;100.00;101698.28;5088952;28;20047;-76
2022/10/13 01:40:49;;;;;;;28.02;11.02;;;;;;;8.51;100.00;101707.66;5063158;28;20039;-76
2022/10/13 01:43:27;;;;;;;24.10;10.88;;;;;;;8.49;100.00;101694.03;5012868;28;20086;-75
2022/10/13 01:45:59;;;;;;;27.27;10.80;;;;;;;8.51;100.00;101689.56;5076994;28;20032;-76
2022/10/13 01:48:26;;;;;;;24.33;10.43;;;;;;;8.52;100.00;101686.88;5056138;28;20040;-76
2022/10/13 01:50:53;;;;;;;30.65;11.13;;;;;;;8.53;100.00;101688.53;5060188;28;20036;-75
2022/10/13 01:53:20;;;;;;;29.75;10.77;;;;;;;8.52;100.00;101686.06;5058960;28;20037;-75
2022/10/13 01:55:52;;;;;;;;;;;;;;;8.50;100.00;101680.19;5063854;28;20033;-75
2022/10/13 01:58:19;;;;;;;23.10;10.30;;;;;;;8.50;100.00;101687.94;5055694;28;20461;-75
2022/10/13 02:00:54;;;;;;;19.13;10.40;;;;;;;8.48;100.00;101684.66;5063930;28;20516;-75
2022/10/13 02:03:25;;;;;;;26.75;10.68;;;;;;;8.47;100.00;101680.41;5040327;28;20029;-75
2022/10/13 02:06:13;;;;;;;24.50;10.80;;;;;;;8.46;100.00;101677.03;5059750;28;20037;-76
2022/10/13 02:08:49;;;;;;;25.48;10.07;;;;;;;8.46;100.00;101676.22;5059403;28;20047;-75
2022/10/13 02:11:17;;;;;;;22.85;10.18;;;;;;;8.46;100.00;101678.78;5055810;28;20477;-75
2022/10/13 02:14:00;;;;;;;26.77;10.35;;;;;;;8.45;100.00;101680.53;5062241;28;20025;-75
2022/10/13 02:16:30;;;;;;;24.02;9.98;;;;;;;8.45;100.00;101671.97;5043209;28;20040;-75
2022/10/13 02:18:57;;;;;;;18.95;9.90;;;;;;;8.44;100.00;101673.72;5053257;28;20037;-75
2022/10/13 02:21:23;;;;;;;20.77;10.15;;;;;;;8.44;100.00;101673.72;5063048;28;20033;-75
2022/10/13 02:23:49;;;;;;;18.33;10.95;;;;;;;8.44;100.00;101665.97;5057022;28;20035;-75
2022/10/13 02:26:18;;;;;;;20.55;10.45;;;;;;;8.46;100.00;101663.28;5053476;28;20428;-75
2022/10/13 02:28:43;;;;;;;22.17;10.43;;;;;;;8.44;100.00;101665.97;5053606;28;20109;-75
2022/10/13 02:31:09;;;;;;;22.45;10.13;;;;;;;8.44;100.00;101665.13;5057542;28;20417;-75
2022/10/13 02:33:34;;;;;;;27.60;9.90;;;;;;;8.44;100.00;101667.72;5058165;28;20036;-75
2022/10/13 02:36:00;;;;;;;18.55;10.65;;;;;;;8.44;100.00;101671.16;5056684;28;20033;-75
2022/10/13 02:38:25;;;;;;;22.13;10.20;;;;;;;8.44;100.00;101662.56;5055834;28;20032;-75
2022/10/13 02:40:51;;;;;;;22.20;9.70;;;;;;;8.44;100.00;101665.13;5052732;28;20040;-75
2022/10/13 02:43:16;;;;;;;24.55;10.32;;;;;;;8.46;100.00;101668.44;5071423;28;20036;-76
2022/10/13 02:45:42;;;;;;;20.10;9.70;;;;;;;8.44;100.00;101660.81;5059613;28;20032;-75
2022/10/13 02:48:07;;;;;;;24.13;10.77;;;;;;;8.44;100.00;101659.97;5056697;28;20561;-75
2022/10/13 02:50:33;;;;;;;23.80;9.95;;;;;;;8.44;100.00;101660.81;5058117;28;20037;-75
2022/10/13 02:52:58;;;;;;;18.58;9.23;;;;;;;8.43;100.00;101656.56;5052416;28;20051;-75
2022/10/13 02:55:24;;;;;;;24.25;10.00;;;;;;;8.43;100.00;101653.19;5054947;28;20028;-75
2022/10/13 02:57:54;;;;;;;20.52;9.38;;;;;;;8.41;100.00;101645.50;5057282;28;20508;-76
2022/10/13 03:00:20;;;;;;;23.45;8.98;;;;;;;8.42;100.00;101651.53;5085206;28;20037;-76
2022/10/13 03:02:45;;;;;;;21.38;8.73;;;;;;;8.41;100.00;101645.50;5061258;28;20094;-76
2022/10/13 03:05:11;;;;;;;19.52;9.02;;;;;;;8.40;100.00;101649.03;5061594;28;20033;-76
2022/10/13 03:07:36;;;;;;;19.35;10.43;;;;;;;8.39;100.00;101649.97;5055429;28;20025;-75
2022/10/13 03:10:03;;;;;;;27.08;10.93;;;;;;;8.40;100.00;101646.47;5061130;28;20477;-75
2022/10/13 03:12:29;;;;;;;24.92;10.25;;;;;;;8.42;100.00;101644.59;5085798;28;20659;-75
2022/10/13 03:14:54;;;;;;;20.80;9.68;;;;;;;8.41;100.00;101644.69;5052159;28;20027;-75
2022/10/13 03:17:20;;;;;;;24.25;9.52;;;;;;;8.41;100.00;101639.53;5053592;28;20146;-76
2022/10/13 03:19:45;;;;;;;20.75;9.85;;;;;;;8.40;100.00;101641.28;5057401;28;20374;-75
2022/10/13 03:22:16;;;;;;;23.55;10.50;;;;;;;8.38;100.00;101637.97;5051048;28;20112;-75
2022/10/13 03:24:41;;;;;;;21.95;9.60;;;;;;;8.38;100.00;101635.41;5058139;28;20045;-75
2022/10/13 03:27:07;;;;;;;20.23;9.57;;;;;;;8.36;100.00;101625.19;5072147;28;20024;-75
2022/10/13 03:29:32;;;;;;;22.27;10.07;;;;;;;8.36;100.00;101630.38;5056907;28;20775;-75
2022/10/13 03:31:58;;;;;;;15.85;9.32;;;;;;;8.36;100.00;101632.97;5060499;28;20102;-75
2022/10/13 03:34:23;;;;;;;17.40;9.68;;;;;;;8.36;100.00;101625.19;5044700;28;20035;-76
2022/10/13 03:36:49;;;;;;;20.40;9.90;;;;;;;8.35;100.00;101625.31;5072699;28;20033;-74
2022/10/13 03:39:15;;;;;;;23.35;10.75;;;;;;;8.36;100.00;101629.53;5055450;28;20029;-75
2022/10/13 03:41:40;;;;;;;17.80;9.63;;;;;;;8.35;100.00;101625.31;5057310;28;20033;-75
2022/10/13 03:44:06;;;;;;;22.00;9.90;;;;;;;8.36;100.00;101626.94;5055572;28;20124;-74
2022/10/13 03:46:32;;;;;;;20.88;9.77;;;;;;;8.34;100.00;101624.50;5044447;28;20509;-75
2022/10/13 03:48:58;;;;;;;21.92;9.80;;;;;;;8.34;100.00;101619.34;5051147;28;21780;-75
2022/10/13 03:51:24;;;;;;;21.88;10.77;;;;;;;8.34;100.00;101627.09;5055859;28;20040;-75
2022/10/13 03:53:51;;;;;;;25.73;10.70;;;;;;;8.32;100.00;101620.38;5047201;28;20477;-75
2022/10/13 03:56:19;;;;;;;20.27;9.38;;;;;;;8.31;100.00;101614.41;5065827;28;20036;-75
2022/10/13 03:58:54;;;;;;;22.95;10.48;;;;;;;8.30;100.00;101617.91;5063426;28;20029;-75
2022/10/13 04:01:25;;;;;;;19.70;9.55;;;;;;;8.29;100.00;101616.28;5057475;28;20497;-76
2022/10/13 04:03:54;;;;;;;21.92;9.57;;;;;;;8.28;100.00;101614.63;5066295;28;20175;-75
2022/10/13 04:06:21;;;;;;;20.33;10.35;;;;;;;8.31;100.00;101621.34;5063001;28;20036;-75
2022/10/13 04:08:47;;;;;;;19.98;11.02;;;;;;;8.29;100.00;101620.66;5057681;28;20126;-75
2022/10/13 04:11:14;;;;;;;20.02;10.07;;;;;;;8.30;100.00;101614.50;5089872;28;20025;-75
2022/10/13 04:13:41;;;;;;;19.25;10.30;;;;;;;8.32;100.00;101604.88;5058879;28;20178;-75
2022/10/13 04:16:24;;;;;;;19.88;11.10;;;;;;;8.29;100.00;101616.28;5046615;28;20405;-75
2022/10/13 04:18:58;;;;;;;23.95;10.50;;;;;;;8.29;100.00;101618.88;5059110;28;20031;-75
2022/10/13 04:21:24;;;;;;;22.70;10.13;;;;;;;8.29;100.00;101612.91;5074081;28;20119;-75
2022/10/13 04:23:52;;;;;;;22.63;9.75;;;;;;;8.29;100.00;101605.13;5068527;28;20067;-75
2022/10/13 04:26:22;;;;;;;19.65;10.85;;;;;;;8.30;100.00;101609.34;5060207;28;20508;-75
2022/10/13 04:28:49;;;;;;;24.73;11.18;;;;;;;8.30;100.00;101604.19;5059674;28;20028;-74
2022/10/13 04:31:15;;;;;;;22.42;11.02;;;;;;;8.31;100.00;101600.66;5072955;28;20032;-74
2022/10/13 04:33:41;;;;;;;20.95;11.27;;;;;;;8.32;100.00;101605.69;5077245;28;20025;-75
2022/10/13 04:36:09;;;;;;;26.88;11.43;;;;;;;8.32;100.00;101595.34;5060160;28;20374;-75
2022/10/13 04:38:35;;;;;;;26.15;11.90;;;;;;;8.33;100.00;101602.19;5065757;28;20036;-75
2022/10/13 04:41:05;;;;;;;22.90;12.02;;;;;;;8.34;100.00;101603.84;5064553;28;20073;-75
2022/10/13 04:43:31;;;;;;;24.83;12.38;;;;;;;8.34;100.00;101603.00;5064268;28;20036;-75
2022/10/13 04:46:03;;;;;;;28.52;12.85;;;;;;;8.35;100.00;101615.78;5062049;28;20071;-75
2022/10/13 04:48:29;;;;;;;25.63;12.90;;;;;;;8.37;100.00;101613.91;5061064;28;20040;-75
2022/10/13 04:50:59;;;;;;;33.15;11.82;;;;;;;8.37;100.00;101595.81;5065358;28;20033;-76
2022/10/13 04:53:27;;;;;;;21.98;11.52;;;;;;;8.39;100.00;101596.50;5064702;28;21592;-75
2022/10/13 04:55:53;;;;;;;19.90;10.57;;;;;;;8.38;100.00;101592.31;5062542;28;20393;-76
2022/10/13 04:58:19;;;;;;;20.05;10.73;;;;;;;8.38;100.00;101599.22;5095000;28;20032;-75
2022/10/13 05:00:45;;;;;;;21.40;11.75;;;;;;;8.38;100.00;101594.03;5057477;28;20040;-76
2022/10/13 05:03:12;;;;;;;25.95;12.02;;;;;;;8.37;100.00;101592.41;5057210;28;20024;-75
2022/10/13 05:05:38;;;;;;;25.05;11.70;;;;;;;8.43;100.00;101597.13;5062020;28;20178;-75
2022/10/13 05:08:03;;;;;;;24.15;11.88;;;;;;;8.40;100.00;101597.34;5065548;28;20032;-76
2022/10/13 05:10:29;;;;;;;28.25;12.38;;;;;;;8.44;100.00;101585.00;5061036;28;20057;-75
2022/10/13 05:12:54;;;;;;;21.58;12.15;;;;;;;8.41;100.00;101595.59;5048834;28;20028;-75
2022/10/13 05:15:20;;;;;;;26.27;11.38;;;;;;;8.39;100.00;101581.00;5064797;28;20036;-76
2022/10/13 05:17:45;;;;;;;21.95;11.23;;;;;;;8.38;100.00;101589.72;5061708;28;20523;-76
2022/10/13 05:20:11;;;;;;;19.45;10.25;;;;;;;8.36;100.00;101583.84;5059806;28;20393;-75
2022/10/13 05:22:36;;;;;;;17.88;10.23;;;;;;;8.38;100.00;101586.28;5096439;28;20045;-75
2022/10/13 05:25:02;;;;;;;23.90;10.35;;;;;;;8.37;100.00;101582.91;5064634;28;20032;-75
2022/10/13 05:27:28;;;;;;;24.25;12.85;;;;;;;8.37;100.00;101579.50;5061861;28;20041;-75
2022/10/13 05:29:53;;;;;;;19.83;10.70;;;;;;;8.36;100.00;101570.09;5064601;28;20036;-75
2022/10/13 05:32:19;;;;;;;23.13;11.13;;;;;;;8.37;100.00;101580.31;5063220;28;20044;-75
2022/10/13 05:34:47;;;;;;;27.13;10.40;;;;;;;8.35;100.00;101578.81;5063021;28;20028;-78
2022/10/13 05:37:15;;;;;;;20.98;11.18;;;;;;;8.35;100.00;101581.38;5058844;28;20103;-75
2022/10/13 05:39:41;;;;;;;22.50;12.00;;;;;;;8.44;100.00;101579.84;5060226;28;20043;-75
2022/10/13 05:42:07;;;;;;;21.00;11.38;;;;;;;8.42;100.00;101566.22;5057951;28;20040;-75
2022/10/13 05:44:32;;;;;;;24.20;11.57;;;;;;;8.37;100.00;101569.16;5062859;28;20066;-75
2022/10/13 05:46:58;;;;;;;19.55;10.10;;;;;;;8.34;100.00;101561.66;5055902;28;20036;-75
2022/10/13 05:49:23;;;;;;;25.67;11.73;;;;;;;8.34;100.00;101559.91;5059865;28;20386;-75
2022/10/13 05:51:53;;;;;;;18.60;10.75;;;;;;;8.33;100.00;101568.59;5065272;28;20063;-75
2022/10/13 05:54:25;;;;;;;23.98;11.50;;;;;;;8.34;100.00;101565.06;5089757;28;20107;-74
2022/10/13 05:56:56;;;;;;;21.88;11.07;;;;;;;8.33;100.00;101572.94;5058951;28;20526;-75
2022/10/13 05:59:22;;;;;;;29.33;11.18;;;;;;;8.32;100.00;101558.38;5090760;28;20050;-75
2022/10/13 06:01:48;;;;;;;20.52;10.95;;;;;;;8.30;100.00;101561.06;5063313;28;20064;-75
2022/10/13 06:04:19;;;;;;;26.30;11.23;;;;;;;8.31;100.00;101560.13;5069762;28;20062;-75
2022/10/13 06:06:46;;;;;;;23.48;10.85;;;;;;;8.30;100.00;101563.66;5060313;28;20036;-75
2022/10/13 06:09:12;;;;;;;20.42;11.85;;;;;;;8.29;100.00;101543.94;5060964;28;20025;-75
2022/10/13 06:11:37;;;;;;;19.85;10.63;;;;;;;8.31;100.00;101554.97;5053477;28;20059;-75
2022/10/13 06:14:03;;;;;;;27.27;12.02;;;;;;;8.43;100.00;101554.97;5057151;28;20025;-76
2022/10/13 06:16:28;;;;;;;24.40;12.00;;;;;;;8.37;100.00;101549.31;5062332;28;20118;-75
2022/10/13 06:18:55;;;;;;;21.50;12.35;;;;;;;8.36;100.00;101560.59;5042549;28;20036;-75
2022/10/13 06:21:21;;;;;;;22.67;11.93;;;;;;;8.36;100.00;101550.25;5069029;28;20508;-75
2022/10/13 06:23:46;;;;;;;24.67;11.68;;;;;;;8.45;100.00;101542.72;5063518;28;20485;-75
2022/10/13 06:26:12;;;;;;;26.00;11.90;;;;;;;8.43;100.00;101547.22;5057896;28;20033;-75
2022/10/13 06:28:37;;;;;;;22.42;10.80;;;;;;;8.47;100.00;101557.16;5044866;28;20040;-75
2022/10/13 06:31:06;;;;;;;23.20;11.10;;;;;;;8.54;100.00;101553.13;5076274;28;20138;-75
2022/10/13 06:33:32;;;;;;;24.15;10.45;;;;;;;8.56;100.00;101548.66;5045873;28;20035;-75
2022/10/13 06:36:02;;;;;;;22.52;10.88;;;;;;;8.55;100.00;101546.19;5058682;28;20040;-76
2022/10/13 06:38:27;;;;;;;20.83;11.63;;;;;;;8.61;100.00;101531.94;5057246;28;20044;-75
2022/10/13 06:40:53;;;;;;;30.73;11.70;;;;;;;8.68;100.00;101533.09;5055907;28;20074;-76
2022/10/13 06:43:19;;;;;;;36.33;16.48;;;;;;;8.77;100.00;101540.91;5063496;28;20029;-76
2022/10/13 06:45:45;;;;;;;27.58;12.80;;;;;;;8.77;100.00;101537.53;5046340;28;20082;-75
2022/10/13 06:48:10;;;;;;;24.85;12.60;;;;;;;8.82;100.00;101537.16;5053771;28;20039;-75
2022/10/13 06:50:36;;;;;;;24.15;11.98;;;;;;;8.89;100.00;101541.69;5088929;28;20033;-75
2022/10/13 06:53:01;;;;;;;29.92;12.40;;;;;;;8.95;100.00;101532.59;5068785;28;20028;-78
2022/10/13 06:55:27;;;;;;;29.92;11.45;;;;;;;8.96;100.00;101535.03;5041957;28;20093;-78
2022/10/13 06:57:52;;;;;;;25.50;11.23;;;;;;;9.03;100.00;101534.56;5056943;28;20040;-76
2022/10/13 07:00:18;;;;;;;25.63;11.73;;;;;;;9.02;100.00;101538.88;5053533;28;20028;-76
2022/10/13 07:02:49;;;;;;;28.05;12.60;;;;;;;9.09;100.00;101542.59;5077862;28;20556;-77
2022/10/13 07:05:14;;;;;;;21.17;10.35;;;;;;;9.09;100.00;101545.19;5041701;28;20028;-76
2022/10/13 07:07:40;;;;;;;26.80;11.07;;;;;;;9.12;100.00;101544.13;5045382;28;20044;-77
2022/10/13 07:10:06;;;;;;;22.10;11.32;;;;;;;9.15;100.00;101549.88;5046483;28;21058;-77
2022/10/13 07:12:31;;;;;;;31.42;12.73;;;;;;;9.26;100.00;101545.56;5064817;28;20509;-77
2022/10/13 07:14:57;;;;;;;22.98;10.38;;;;;;;9.30;100.00;101547.75;5055537;28;20036;-77
2022/10/13 07:17:22;;;;;;;32.13;12.35;;;;;;;9.32;100.00;101545.88;5056899;28;20040;-78
2022/10/13 07:19:48;;;;;;;24.45;10.52;;;;;;;9.39;100.00;101540.16;5048202;28;20055;-77
2022/10/13 07:22:14;;;;;;;20.48;11.18;;;;;;;9.42;100.00;101551.09;5061876;28;20044;-77
2022/10/13 07:24:39;;;;;;;23.05;12.02;;;;;;;9.48;100.00;101547.16;5055598;28;20083;-79
2022/10/13 07:27:05;;;;;;;27.98;12.40;;;;;;;9.55;100.00;101541.31;5060186;28;21919;-77
2022/10/13 07:29:30;;;;;;;32.58;12.35;;;;;;;9.68;100.00;101540.25;5062086;28;20036;-77
2022/10/13 07:31:56;;;;;;;27.50;12.52;;;;;;;9.82;100.00;101541.69;5062573;28;20037;-77
2022/10/13 07:34:21;;;;;;;28.00;11.90;;;;;;;9.96;100.00;101554.22;5076918;28;20087;-77
2022/10/13 07:36:47;;;;;;;25.73;12.55;;;;;;;10.01;100.00;101538.31;5064588;28;20036;-77
2022/10/13 07:39:12;;;;;;;26.70;12.35;;;;;;;10.17;100.00;101535.16;5058765;28;20067;-78
2022/10/13 07:41:38;;;;;;;25.00;12.10;;;;;;;10.26;100.00;101544.72;5094995;28;20032;-77
2022/10/13 07:44:03;;;;;;;24.63;10.93;;;;;;;10.38;100.00;101545.44;5044352;28;20384;-77
2022/10/13 07:46:29;;;;;;;28.17;11.60;;;;;;;10.52;100.00;101545.84;5075982;28;20040;-79
2022/10/13 07:48:54;;;;;;;28.48;12.43;;;;;;;10.71;100.00;101544.19;5070400;28;20032;-79
2022/10/13 07:51:21;;;;;;;26.83;10.85;;;;;;;10.71;100.00;101546.78;5062551;28;20032;-79
2022/10/13 07:53:47;;;;;;;30.77;11.50;;;;;;;10.70;100.00;101545.97;5071418;28;20513;-80
2022/10/13 07:56:14;;;;;;;34.63;13.45;;;;;;;10.74;100.00;101559.50;5065047;28;20044;-79
2022/10/13 07:58:43;;;;;;;24.45;11.13;;;;;;;10.69;100.00;101548.72;5057462;28;20033;-80
2022/10/13 08:01:10;;;;;;;244.73;39.05;;;;;;;10.63;100.00;101547.50;5059526;28;20052;-78
2022/10/13 08:03:39;;;;;;;25.30;11.00;;;;;;;10.64;100.00;101540.50;5069149;28;20037;-79
2022/10/13 08:06:05;;;;;;;26.65;12.05;;;;;;;10.74;100.00;101543.09;5071008;28;20058;-79
2022/10/13 08:08:31;;;;;;;21.38;11.15;;;;;;;10.80;100.00;101545.16;5050561;28;20056;-79
2022/10/13 08:11:02;;;;;;;21.90;11.98;;;;;;;10.75;100.00;101539.56;5059583;28;20044;-78
2022/10/13 08:13:30;;;;;;;;;;;;;;;10.78;100.00;101545.28;5077972;28;20413;-78
2022/10/13 08:16:00;;;;;;;32.80;11.52;;;;;;;10.89;100.00;101542.53;5078134;28;19912;-80
2022/10/13 08:18:27;;;;;;;20.27;10.55;;;;;;;10.81;100.00;101539.00;5068918;28;20167;-79
2022/10/13 08:20:53;;;;;;;26.65;11.82;;;;;;;10.84;100.00;101544.72;5072445;28;20035;-80
2022/10/13 08:23:18;;;;;;;31.73;11.85;;;;;;;10.90;100.00;101544.16;5075864;28;20033;-80
2022/10/13 08:25:52;;;;;;;27.98;11.85;;;;;;;11.00;100.00;101538.97;5071525;28;20112;-81
2022/10/13 08:28:24;;;;;;;23.65;11.27;;;;;;;11.10;100.00;101531.16;5047942;28;20033;-79
2022/10/13 08:30:50;;;;;;;22.02;11.88;;;;;;;11.22;100.00;101534.38;5073472;28;20490;-80
2022/10/13 08:33:16;;;;;;;22.58;11.93;;;;;;;11.28;100.00;101532.06;5046314;28;20025;-79
2022/10/13 08:35:42;;;;;;;23.23;11.43;;;;;;;11.30;100.00;101532.72;5064757;28;20020;-79
2022/10/13 08:38:08;;;;;;;25.35;12.38;;;;;;;11.38;100.00;101521.63;5073977;28;20543;-81
2022/10/13 08:40:34;;;;;;;21.67;11.57;;;;;;;11.51;100.00;101518.69;5071483;28;20041;-80
2022/10/13 08:43:03;;;;;;;29.80;11.35;;;;;;;11.77;100.00;101523.19;5073742;28;20029;-80
2022/10/13 08:45:30;;;;;;;26.50;12.32;;;;;;;11.92;100.00;101508.75;5068935;28;20032;-79
2022/10/13 08:48:02;;;;;;;22.33;11.32;;;;;;;12.05;100.00;101511.81;5047797;28;20032;-81
2022/10/13 08:50:32;;;;;;;32.92;11.25;;;;;;;12.11;99.72;101512.19;5075988;28;20504;-81
2022/10/13 08:53:06;;;;;;;23.98;11.45;;;;;;;12.26;98.58;101514.13;5070991;28;20081;-84
2022/10/13 08:55:40;;;;;;;25.77;10.55;;;;;;;12.31;97.50;101508.47;5076970;28;20563;-81
2022/10/13 08:58:13;;;;;;;26.13;11.23;;;;;;;12.40;97.36;101507.56;5049514;28;20063;-81
2022/10/13 09:00:41;;;;;;;29.52;11.60;;;;;;;12.50;96.92;101506.66;5066093;28;20047;-80
2022/10/13 09:03:21;;;;;;;22.48;10.82;;;;;;;12.57;96.66;101499.88;5062789;28;20039;-83
2022/10/13 09:06:28;;;;;;;26.50;11.25;;;;;;;12.71;96.80;101501.09;5077596;28;20051;-81
2022/10/13 09:09:03;;;;;;;26.20;10.68;;;;;;;12.77;95.81;101500.47;5062039;28;20951;-81
2022/10/13 09:11:37;;;;;;;26.70;10.25;;;;;;;12.82;95.42;101500.84;5096536;28;20097;-79
2022/10/13 09:14:06;;;;;;;26.58;10.85;;;;;;;12.89;94.62;101506.28;5050154;28;20473;-81
2022/10/13 09:16:42;;;;;;;32.88;11.18;;;;;;;12.95;94.91;101496.03;5081556;28;20032;-81
2022/10/13 09:19:22;;;;;;;21.23;10.10;;;;;;;13.09;94.09;101501.66;5052666;28;20435;-82
2022/10/13 09:22:22;;;;;;;28.42;10.20;;;;;;;13.11;94.43;101500.53;5060337;28;20025;-80
2022/10/13 09:25:07;;;;;;;20.08;9.63;;;;;;;13.12;94.90;101494.34;5038954;28;20064;-83
2022/10/13 09:27:43;;;;;;;20.75;8.98;;;;;;;13.25;90.80;101494.72;5048725;28;20043;-82
2022/10/13 09:30:30;;;;;;;23.65;8.48;;;;;;;13.28;90.30;101500.59;5079093;28;20092;-83
2022/10/13 09:33:10;;;;;;;18.10;9.25;;;;;;;13.24;90.13;101494.88;5056444;28;20033;-78
2022/10/13 09:35:40;;;;;;;18.27;8.02;;;;;;;13.20;90.78;101488.34;5069429;28;20497;-79
2022/10/13 09:38:20;;;;;;;16.98;7.28;;;;;;;13.23;91.00;101482.84;5063927;28;20764;-81
2022/10/13 09:41:03;;;;;;;19.05;7.47;;;;;;;13.32;90.62;101478.53;5040725;28;20655;-80
2022/10/13 09:43:58;;;;;;;17.92;8.82;;;;;;;13.45;90.13;101489.31;5078095;28;20086;-80
2022/10/13 09:46:31;;;;;;;21.10;7.95;;;;;;;13.54;88.22;101477.94;5044855;28;20444;-80
2022/10/13 09:49:26;;;;;;;;;;;;;;;13.47;88.71;101473.50;5059961;28;20068;-79
2022/10/13 09:52:02;;;;;;;17.48;7.55;;;;;;;13.53;88.51;101473.69;5036967;28;19912;-82
2022/10/13 09:54:37;;;;;;;23.38;8.77;;;;;;;13.66;88.55;101470.63;5063216;28;20134;-81
2022/10/13 09:57:39;;;;;;;21.52;8.00;;;;;;;13.63;88.30;101469.13;5042973;28;20028;-79
2022/10/13 10:00:20;;;;;;;14.93;7.22;;;;;;;13.71;88.69;101468.38;5091081;28;20128;-81
2022/10/13 10:03:18;;;;;;;18.90;7.22;;;;;;;13.83;87.49;101466.25;5074863;28;20039;-82
2022/10/13 10:05:54;;;;;;;18.00;7.55;;;;;;;13.84;88.01;101460.06;5064159;28;20035;-80
2022/10/13 10:08:35;;;;;;;18.23;7.15;;;;;;;13.90;88.68;101462.03;5058890;28;20136;-81
2022/10/13 10:11:04;;;;;;;16.55;7.38;;;;;;;13.98;87.65;101458.63;5047514;28;20036;-80
2022/10/13 10:13:30;;;;;;;19.25;7.35;;;;;;;14.26;85.40;101456.50;5063066;28;20209;-79
2022/10/13 10:16:08;;;;;;;18.77;7.28;;;;;;;14.37;85.55;101453.56;5063632;28;20054;-79
2022/10/13 10:18:45;;;;;;;18.60;6.18;;;;;;;14.49;83.88;101451.41;5065331;28;20040;-80
2022/10/13 10:21:42;;;;;;;15.10;5.95;;;;;;;14.61;83.22;101449.28;5063337;28;20587;-79
2022/10/13 10:24:19;;;;;;;21.05;7.20;;;;;;;14.78;82.96;101448.25;5065856;28;20103;-80
2022/10/13 10:26:58;;;;;;;18.17;7.28;;;;;;;14.84;82.92;101444.16;5053423;28;20043;-81
2022/10/13 10:29:48;;;;;;;15.18;5.40;;;;;;;14.87;82.21;101450.88;5078176;28;20032;-82
2022/10/13 10:32:29;;;;;;;13.80;5.85;;;;;;;14.96;80.65;101445.44;5067481;28;20081;-81
2022/10/13 10:35:01;;;;;;;17.77;5.72;;;;;;;15.04;79.79;101444.59;5043975;28;20024;-81
2022/10/13 10:37:33;;;;;;;13.65;5.50;;;;;;;15.06;79.97;101449.66;5062600;28;20181;-79
2022/10/13 10:40:19;;;;;;;17.90;6.18;;;;;;;15.03;79.29;101442.97;5048905;28;20159;-81
2022/10/13 10:43:02;;;;;;;16.33;5.28;;;;;;;15.05;79.87;101440.16;5063410;28;20039;-79
2022/10/13 10:45:32;;;;;;;;;;;;;;;14.90;80.22;101443.50;5058305;28;20048;-81
2022/10/13 10:48:06;;;;;;;16.88;5.57;;;;;;;15.01;80.13;101449.34;5058864;28;19963;-80
2022/10/13 10:50:33;;;;;;;20.77;5.45;;;;;;;14.89;80.58;101441.88;5048181;28;20033;-81
2022/10/13 10:53:18;;;;;;;17.10;4.80;;;;;;;14.81;81.26;101444.50;5059502;28;20267;-80
2022/10/13 10:55:54;;;;;;;15.85;4.57;;;;;;;14.77;81.95;101443.22;5045691;28;20021;-79
2022/10/13 10:58:51;;;;;;;12.48;4.03;;;;;;;14.81;80.88;101439.28;5046365;28;20025;-79
2022/10/13 11:01:42;;;;;;;25.30;8.38;;;;;;;14.91;80.81;101437.28;5047219;28;20028;-79
2022/10/13 11:04:32;;;;;;;24.85;12.60;;;;;;;14.79;81.50;101441.25;5068183;28;20043;-79
2022/10/13 11:06:58;;;;;;;16.95;6.72;;;;;;;14.63;83.14;101439.50;5063199;28;20036;-80
2022/10/13 11:09:42;;;;;;;13.77;5.85;;;;;;;14.55;84.42;101439.50;5061164;28;20116;-78
2022/10/13 11:12:49;;;;;;;9.68;5.30;;;;;;;14.47;86.24;101435.09;5044314;28;20508;-80
2022/10/13 11:15:39;;;;;;;12.93;5.65;;;;;;;14.50;85.76;101429.53;5064200;28;20029;-77
2022/10/13 11:18:42;;;;;;;20.85;6.15;;;;;;;14.43;86.58;101433.81;5071922;28;20505;-77
2022/10/13 11:21:07;;;;;;;14.10;5.67;;;;;;;14.35;88.19;101437.25;5062248;28;20362;-78
2022/10/13 11:23:43;;;;;;;22.25;6.40;;;;;;;14.23;88.05;101435.94;5046475;28;20032;-77
2022/10/13 11:26:39;;;;;;;13.57;5.65;;;;;;;14.14;90.02;101435.13;5070388;28;20398;-80
2022/10/13 11:29:16;;;;;;;11.82;5.60;;;;;;;14.10;90.05;101433.84;5063249;28;20025;-77